sensor_id;sensor_type;location;lat;lon;timestamp;P1;durP1;ratioP1;P2;durP2;ratioP2
22040;SDS011;11184;52.444;13.578;2023-12-22T00:02:26;12.20;;;2.83;;
22040;SDS011;11184;52.444;13.578;2023-12-22T00:05:12;4.75;;;1.98;;
22040;SDS011;11184;52.444;13.578;2023-12-22T00:07:56;12.68;;;1.77;;
22040;SDS011;11184;52.444;13.578;2023-12-22T00:10:41;8.88;;;1.60;;
22040;SDS011;11184;52.444;13.578;2023-12-22T00:13:26;5.22;;;2.00;;
22040;SDS011;11184;52.444;13.578;2023-12-22T00:16:11;6.13;;;1.63;;
22040;SDS011;11184;52.444;13.578;2023-12-22T00:18:55;8.65;;;2.17;;
22040;SDS011;11184;52.444;13.578;2023-12-22T00:21:41;2.83;;;1.40;;
22040;SDS011;11184;52.444;13.578;2023-12-22T00:24:25;13.70;;;2.20;;
22040;SDS011;11184;52.444;13.578;2023-12-22T00:27:10;13.02;;;2.75;;
22040;SDS011;11184;52.444;13.578;2023-12-22T00:29:55;9.35;;;2.22;;
22040;SDS011;11184;52.444;13.578;2023-12-22T00:32:39;9.52;;;2.38;;
22040;SDS011;11184;52.444;13.578;2023-12-22T00:35:25;14.25;;;2.35;;
22040;SDS011;11184;52.444;13.578;2023-12-22T00:38:10;7.72;;;2.28;;
22040;SDS011;11184;52.444;13.578;2023-12-22T00:40:55;11.85;;;3.13;;
22040;SDS011;11184;52.444;13.578;2023-12-22T00:43:39;18.13;;;3.38;;
22040;SDS011;11184;52.444;13.578;2023-12-22T00:46:24;15.05;;;2.90;;
22040;SDS011;11184;52.444;13.578;2023-12-22T00:49:09;19.50;;;2.58;;
22040;SDS011;11184;52.444;13.578;2023-12-22T00:51:53;8.00;;;3.13;;
22040;SDS011;11184;52.444;13.578;2023-12-22T00:54:38;14.48;;;2.80;;
22040;SDS011;11184;52.444;13.578;2023-12-22T00:57:22;15.90;;;2.88;;
22040;SDS011;11184;52.444;13.578;2023-12-22T01:00:07;18.17;;;5.00;;
22040;SDS011;11184;52.444;13.578;2023-12-22T01:02:56;17.42;;;3.17;;
22040;SDS011;11184;52.444;13.578;2023-12-22T01:05:40;21.02;;;4.00;;
22040;SDS011;11184;52.444;13.578;2023-12-22T01:08:25;8.45;;;2.63;;
22040;SDS011;11184;52.444;13.578;2023-12-22T01:11:10;10.20;;;3.00;;
22040;SDS011;11184;52.444;13.578;2023-12-22T01:13:54;10.52;;;2.53;;
22040;SDS011;11184;52.444;13.578;2023-12-22T01:16:39;6.43;;;2.20;;
22040;SDS011;11184;52.444;13.578;2023-12-22T01:19:24;9.57;;;2.38;;
22040;SDS011;11184;52.444;13.578;2023-12-22T01:22:08;10.30;;;2.53;;
22040;SDS011;11184;52.444;13.578;2023-12-22T01:24:53;14.15;;;2.95;;
22040;SDS011;11184;52.444;13.578;2023-12-22T01:27:37;8.88;;;2.55;;
22040;SDS011;11184;52.444;13.578;2023-12-22T01:30:22;15.85;;;3.45;;
22040;SDS011;11184;52.444;13.578;2023-12-22T01:33:06;8.82;;;3.78;;
22040;SDS011;11184;52.444;13.578;2023-12-22T01:35:51;6.75;;;2.58;;
22040;SDS011;11184;52.444;13.578;2023-12-22T01:38:36;12.10;;;2.55;;
22040;SDS011;11184;52.444;13.578;2023-12-22T01:41:20;10.15;;;2.95;;
22040;SDS011;11184;52.444;13.578;2023-12-22T01:44:05;12.57;;;3.88;;
22040;SDS011;11184;52.444;13.578;2023-12-22T01:46:49;18.42;;;3.15;;
22040;SDS011;11184;52.444;13.578;2023-12-22T01:49:35;8.52;;;2.78;;
22040;SDS011;11184;52.444;13.578;2023-12-22T01:52:20;8.70;;;3.42;;
22040;SDS011;11184;52.444;13.578;2023-12-22T01:55:05;10.88;;;3.03;;
22040;SDS011;11184;52.444;13.578;2023-12-22T01:57:50;12.10;;;3.22;;
22040;SDS011;11184;52.444;13.578;2023-12-22T02:00:35;10.10;;;2.50;;
22040;SDS011;11184;52.444;13.578;2023-12-22T02:03:19;16.58;;;3.10;;
22040;SDS011;11184;52.444;13.578;2023-12-22T02:06:05;15.00;;;3.28;;
22040;SDS011;11184;52.444;13.578;2023-12-22T02:08:50;12.95;;;3.35;;
22040;SDS011;11184;52.444;13.578;2023-12-22T02:11:37;12.93;;;2.47;;
22040;SDS011;11184;52.444;13.578;2023-12-22T02:14:21;16.08;;;3.00;;
22040;SDS011;11184;52.444;13.578;2023-12-22T02:17:18;11.90;;;3.58;;
22040;SDS011;11184;52.444;13.578;2023-12-22T02:20:06;18.60;;;3.67;;
22040;SDS011;11184;52.444;13.578;2023-12-22T02:22:52;12.20;;;2.80;;
22040;SDS011;11184;52.444;13.578;2023-12-22T02:25:37;16.17;;;4.40;;
22040;SDS011;11184;52.444;13.578;2023-12-22T02:28:22;12.32;;;2.83;;
22040;SDS011;11184;52.444;13.578;2023-12-22T02:33:55;8.82;;;3.28;;
22040;SDS011;11184;52.444;13.578;2023-12-22T02:36:43;14.95;;;3.65;;
22040;SDS011;11184;52.444;13.578;2023-12-22T02:39:28;7.68;;;2.10;;
22040;SDS011;11184;52.444;13.578;2023-12-22T02:42:13;14.65;;;2.50;;
22040;SDS011;11184;52.444;13.578;2023-12-22T02:44:58;7.47;;;2.97;;
22040;SDS011;11184;52.444;13.578;2023-12-22T02:47:43;15.32;;;3.30;;
22040;SDS011;11184;52.444;13.578;2023-12-22T02:50:28;9.50;;;2.58;;
22040;SDS011;11184;52.444;13.578;2023-12-22T02:53:13;9.52;;;3.20;;
22040;SDS011;11184;52.444;13.578;2023-12-22T02:55:57;16.58;;;3.45;;
22040;SDS011;11184;52.444;13.578;2023-12-22T02:58:42;7.55;;;2.63;;
22040;SDS011;11184;52.444;13.578;2023-12-22T03:01:27;9.80;;;2.53;;
22040;SDS011;11184;52.444;13.578;2023-12-22T03:04:11;11.20;;;2.50;;
22040;SDS011;11184;52.444;13.578;2023-12-22T03:06:56;10.43;;;2.53;;
22040;SDS011;11184;52.444;13.578;2023-12-22T03:09:41;9.30;;;2.00;;
22040;SDS011;11184;52.444;13.578;2023-12-22T03:12:26;9.68;;;2.55;;
22040;SDS011;11184;52.444;13.578;2023-12-22T03:15:11;6.38;;;2.22;;
22040;SDS011;11184;52.444;13.578;2023-12-22T03:17:56;9.00;;;2.42;;
22040;SDS011;11184;52.444;13.578;2023-12-22T03:20:40;12.20;;;2.35;;
22040;SDS011;11184;52.444;13.578;2023-12-22T03:23:25;13.55;;;3.33;;
22040;SDS011;11184;52.444;13.578;2023-12-22T03:26:09;6.10;;;2.10;;
22040;SDS011;11184;52.444;13.578;2023-12-22T03:28:54;6.95;;;1.58;;
22040;SDS011;11184;52.444;13.578;2023-12-22T03:31:38;6.60;;;2.28;;
22040;SDS011;11184;52.444;13.578;2023-12-22T03:34:23;6.70;;;2.15;;
22040;SDS011;11184;52.444;13.578;2023-12-22T03:37:08;11.45;;;2.22;;
22040;SDS011;11184;52.444;13.578;2023-12-22T03:39:53;10.52;;;2.75;;
22040;SDS011;11184;52.444;13.578;2023-12-22T03:42:37;10.48;;;2.78;;
22040;SDS011;11184;52.444;13.578;2023-12-22T03:45:22;9.23;;;2.22;;
22040;SDS011;11184;52.444;13.578;2023-12-22T03:48:07;6.22;;;1.85;;
22040;SDS011;11184;52.444;13.578;2023-12-22T03:50:51;11.57;;;2.78;;
22040;SDS011;11184;52.444;13.578;2023-12-22T03:53:36;11.13;;;2.35;;
22040;SDS011;11184;52.444;13.578;2023-12-22T03:56:21;11.52;;;2.83;;
22040;SDS011;11184;52.444;13.578;2023-12-22T03:59:05;11.93;;;2.97;;
22040;SDS011;11184;52.444;13.578;2023-12-22T04:01:50;9.65;;;2.80;;
22040;SDS011;11184;52.444;13.578;2023-12-22T04:04:39;7.43;;;1.77;;
22040;SDS011;11184;52.444;13.578;2023-12-22T04:07:24;6.88;;;2.00;;
22040;SDS011;11184;52.444;13.578;2023-12-22T04:10:08;4.72;;;1.83;;
22040;SDS011;11184;52.444;13.578;2023-12-22T04:12:53;7.40;;;1.63;;
22040;SDS011;11184;52.444;13.578;2023-12-22T04:15:38;4.18;;;1.80;;
22040;SDS011;11184;52.444;13.578;2023-12-22T04:18:22;5.63;;;1.55;;
22040;SDS011;11184;52.444;13.578;2023-12-22T04:21:07;3.83;;;1.20;;
22040;SDS011;11184;52.444;13.578;2023-12-22T04:23:51;5.05;;;1.10;;
22040;SDS011;11184;52.444;13.578;2023-12-22T04:26:36;1.98;;;0.75;;
22040;SDS011;11184;52.444;13.578;2023-12-22T04:29:20;2.80;;;0.70;;
22040;SDS011;11184;52.444;13.578;2023-12-22T04:32:05;3.28;;;0.88;;
22040;SDS011;11184;52.444;13.578;2023-12-22T04:34:49;5.93;;;2.20;;
22040;SDS011;11184;52.444;13.578;2023-12-22T04:37:34;2.10;;;0.95;;
22040;SDS011;11184;52.444;13.578;2023-12-22T04:40:19;4.15;;;1.00;;
22040;SDS011;11184;52.444;13.578;2023-12-22T04:43:04;4.18;;;1.50;;
22040;SDS011;11184;52.444;13.578;2023-12-22T04:45:48;5.78;;;1.50;;
22040;SDS011;11184;52.444;13.578;2023-12-22T04:48:33;3.53;;;1.60;;
22040;SDS011;11184;52.444;13.578;2023-12-22T04:51:17;4.35;;;1.83;;
22040;SDS011;11184;52.444;13.578;2023-12-22T04:54:02;7.45;;;1.20;;
22040;SDS011;11184;52.444;13.578;2023-12-22T04:56:47;6.07;;;1.35;;
22040;SDS011;11184;52.444;13.578;2023-12-22T04:59:31;4.47;;;1.33;;
22040;SDS011;11184;52.444;13.578;2023-12-22T05:02:16;5.10;;;1.30;;
22040;SDS011;11184;52.444;13.578;2023-12-22T05:05:00;6.43;;;1.33;;
22040;SDS011;11184;52.444;13.578;2023-12-22T05:07:46;7.60;;;1.50;;
22040;SDS011;11184;52.444;13.578;2023-12-22T05:10:31;4.55;;;1.55;;
22040;SDS011;11184;52.444;13.578;2023-12-22T05:13:16;4.75;;;1.05;;
22040;SDS011;11184;52.444;13.578;2023-12-22T05:16:00;2.60;;;0.82;;
22040;SDS011;11184;52.444;13.578;2023-12-22T05:18:45;4.78;;;1.17;;
22040;SDS011;11184;52.444;13.578;2023-12-22T05:21:31;2.22;;;1.13;;
22040;SDS011;11184;52.444;13.578;2023-12-22T05:24:15;5.53;;;0.98;;
22040;SDS011;11184;52.444;13.578;2023-12-22T05:27:01;3.20;;;1.52;;
22040;SDS011;11184;52.444;13.578;2023-12-22T05:29:46;3.75;;;1.00;;
22040;SDS011;11184;52.444;13.578;2023-12-22T05:32:31;3.30;;;1.67;;
22040;SDS011;11184;52.444;13.578;2023-12-22T05:35:16;3.38;;;1.17;;
22040;SDS011;11184;52.444;13.578;2023-12-22T05:38:00;3.50;;;0.90;;
22040;SDS011;11184;52.444;13.578;2023-12-22T05:40:45;2.20;;;1.10;;
22040;SDS011;11184;52.444;13.578;2023-12-22T05:43:30;6.13;;;1.90;;
22040;SDS011;11184;52.444;13.578;2023-12-22T05:46:15;7.35;;;1.30;;
22040;SDS011;11184;52.444;13.578;2023-12-22T05:48:59;3.45;;;1.17;;
22040;SDS011;11184;52.444;13.578;2023-12-22T05:51:44;7.05;;;1.70;;
22040;SDS011;11184;52.444;13.578;2023-12-22T05:54:28;1.02;;;0.80;;
22040;SDS011;11184;52.444;13.578;2023-12-22T05:57:13;3.35;;;0.70;;
22040;SDS011;11184;52.444;13.578;2023-12-22T05:59:57;2.90;;;0.90;;
22040;SDS011;11184;52.444;13.578;2023-12-22T06:02:42;2.67;;;0.90;;
22040;SDS011;11184;52.444;13.578;2023-12-22T06:05:27;3.47;;;0.82;;
22040;SDS011;11184;52.444;13.578;2023-12-22T06:08:11;7.30;;;1.42;;
22040;SDS011;11184;52.444;13.578;2023-12-22T06:10:56;11.43;;;2.28;;
22040;SDS011;11184;52.444;13.578;2023-12-22T06:13:40;3.10;;;0.98;;
22040;SDS011;11184;52.444;13.578;2023-12-22T06:16:25;8.73;;;1.42;;
22040;SDS011;11184;52.444;13.578;2023-12-22T06:19:10;6.93;;;1.77;;
22040;SDS011;11184;52.444;13.578;2023-12-22T06:21:56;7.55;;;2.25;;
22040;SDS011;11184;52.444;13.578;2023-12-22T06:24:41;6.35;;;1.40;;
22040;SDS011;11184;52.444;13.578;2023-12-22T06:27:26;4.18;;;1.55;;
22040;SDS011;11184;52.444;13.578;2023-12-22T06:30:11;6.70;;;1.20;;
22040;SDS011;11184;52.444;13.578;2023-12-22T06:32:56;3.90;;;1.17;;
22040;SDS011;11184;52.444;13.578;2023-12-22T06:35:40;7.30;;;1.90;;
22040;SDS011;11184;52.444;13.578;2023-12-22T06:38:25;6.40;;;1.50;;
22040;SDS011;11184;52.444;13.578;2023-12-22T06:41:17;3.40;;;1.15;;
22040;SDS011;11184;52.444;13.578;2023-12-22T06:44:02;1.48;;;1.38;;
22040;SDS011;11184;52.444;13.578;2023-12-22T06:46:47;5.30;;;0.75;;
22040;SDS011;11184;52.444;13.578;2023-12-22T06:49:31;5.57;;;1.35;;
22040;SDS011;11184;52.444;13.578;2023-12-22T06:52:16;7.50;;;0.77;;
22040;SDS011;11184;52.444;13.578;2023-12-22T06:55:00;2.25;;;1.55;;
22040;SDS011;11184;52.444;13.578;2023-12-22T06:57:46;2.58;;;1.10;;
22040;SDS011;11184;52.444;13.578;2023-12-22T07:00:30;3.97;;;1.00;;
22040;SDS011;11184;52.444;13.578;2023-12-22T07:03:15;3.15;;;1.05;;
22040;SDS011;11184;52.444;13.578;2023-12-22T07:06:01;3.20;;;1.63;;
22040;SDS011;11184;52.444;13.578;2023-12-22T07:11:46;5.40;;;1.20;;
22040;SDS011;11184;52.444;13.578;2023-12-22T07:14:31;4.18;;;1.50;;
22040;SDS011;11184;52.444;13.578;2023-12-22T07:17:16;9.57;;;1.20;;
22040;SDS011;11184;52.444;13.578;2023-12-22T07:20:00;7.50;;;1.67;;
22040;SDS011;11184;52.444;13.578;2023-12-22T07:22:46;3.08;;;1.65;;
22040;SDS011;11184;52.444;13.578;2023-12-22T07:25:35;6.13;;;2.60;;
22040;SDS011;11184;52.444;13.578;2023-12-22T07:28:19;11.02;;;1.90;;
22040;SDS011;11184;52.444;13.578;2023-12-22T07:31:04;6.68;;;1.20;;
22040;SDS011;11184;52.444;13.578;2023-12-22T07:33:49;2.28;;;1.20;;
22040;SDS011;11184;52.444;13.578;2023-12-22T07:36:33;2.03;;;1.20;;
22040;SDS011;11184;52.444;13.578;2023-12-22T07:39:18;5.55;;;1.83;;
22040;SDS011;11184;52.444;13.578;2023-12-22T07:42:03;7.57;;;1.55;;
22040;SDS011;11184;52.444;13.578;2023-12-22T07:44:48;5.28;;;1.88;;
22040;SDS011;11184;52.444;13.578;2023-12-22T07:47:33;6.78;;;2.17;;
22040;SDS011;11184;52.444;13.578;2023-12-22T07:50:18;6.43;;;1.77;;
22040;SDS011;11184;52.444;13.578;2023-12-22T07:53:02;6.80;;;2.03;;
22040;SDS011;11184;52.444;13.578;2023-12-22T07:55:47;5.53;;;1.63;;
22040;SDS011;11184;52.444;13.578;2023-12-22T07:58:32;2.97;;;1.33;;
22040;SDS011;11184;52.444;13.578;2023-12-22T08:01:17;7.80;;;1.63;;
22040;SDS011;11184;52.444;13.578;2023-12-22T08:04:02;7.30;;;1.35;;
22040;SDS011;11184;52.444;13.578;2023-12-22T08:06:48;9.65;;;2.20;;
22040;SDS011;11184;52.444;13.578;2023-12-22T08:09:32;6.70;;;1.27;;
22040;SDS011;11184;52.444;13.578;2023-12-22T08:12:17;6.38;;;1.33;;
22040;SDS011;11184;52.444;13.578;2023-12-22T08:15:03;4.20;;;1.60;;
22040;SDS011;11184;52.444;13.578;2023-12-22T08:17:51;8.38;;;1.50;;
22040;SDS011;11184;52.444;13.578;2023-12-22T08:20:35;3.83;;;1.20;;
22040;SDS011;11184;52.444;13.578;2023-12-22T08:23:20;8.95;;;1.10;;
22040;SDS011;11184;52.444;13.578;2023-12-22T08:26:04;8.73;;;2.67;;
22040;SDS011;11184;52.444;13.578;2023-12-22T08:28:49;5.00;;;1.00;;
22040;SDS011;11184;52.444;13.578;2023-12-22T08:31:34;4.53;;;1.08;;
22040;SDS011;11184;52.444;13.578;2023-12-22T08:34:18;2.75;;;1.10;;
22040;SDS011;11184;52.444;13.578;2023-12-22T08:37:03;3.03;;;1.13;;
22040;SDS011;11184;52.444;13.578;2023-12-22T08:39:48;4.07;;;0.90;;
22040;SDS011;11184;52.444;13.578;2023-12-22T08:42:34;4.03;;;1.00;;
22040;SDS011;11184;52.444;13.578;2023-12-22T08:45:18;5.50;;;1.23;;
22040;SDS011;11184;52.444;13.578;2023-12-22T08:48:03;3.70;;;1.55;;
22040;SDS011;11184;52.444;13.578;2023-12-22T08:50:51;3.90;;;1.20;;
22040;SDS011;11184;52.444;13.578;2023-12-22T08:53:36;5.38;;;1.60;;
22040;SDS011;11184;52.444;13.578;2023-12-22T08:56:24;6.50;;;1.80;;
22040;SDS011;11184;52.444;13.578;2023-12-22T08:59:09;3.58;;;1.15;;
22040;SDS011;11184;52.444;13.578;2023-12-22T09:01:53;9.93;;;2.05;;
22040;SDS011;11184;52.444;13.578;2023-12-22T09:04:38;13.48;;;3.05;;
22040;SDS011;11184;52.444;13.578;2023-12-22T09:07:23;7.85;;;2.50;;
22040;SDS011;11184;52.444;13.578;2023-12-22T09:10:08;7.07;;;2.13;;
22040;SDS011;11184;52.444;13.578;2023-12-22T09:12:52;11.13;;;2.17;;
22040;SDS011;11184;52.444;13.578;2023-12-22T09:15:37;10.07;;;1.70;;
22040;SDS011;11184;52.444;13.578;2023-12-22T09:18:22;6.30;;;2.33;;
22040;SDS011;11184;52.444;13.578;2023-12-22T09:21:07;8.05;;;1.77;;
22040;SDS011;11184;52.444;13.578;2023-12-22T09:23:51;3.75;;;1.70;;
22040;SDS011;11184;52.444;13.578;2023-12-22T09:26:36;6.57;;;1.40;;
22040;SDS011;11184;52.444;13.578;2023-12-22T09:29:20;9.32;;;2.28;;
22040;SDS011;11184;52.444;13.578;2023-12-22T09:32:05;9.15;;;2.00;;
22040;SDS011;11184;52.444;13.578;2023-12-22T09:34:49;5.18;;;1.95;;
22040;SDS011;11184;52.444;13.578;2023-12-22T09:37:34;9.55;;;2.92;;
22040;SDS011;11184;52.444;13.578;2023-12-22T09:40:19;8.98;;;1.33;;
22040;SDS011;11184;52.444;13.578;2023-12-22T09:43:06;10.73;;;2.08;;
22040;SDS011;11184;52.444;13.578;2023-12-22T09:45:51;17.75;;;1.98;;
22040;SDS011;11184;52.444;13.578;2023-12-22T09:48:37;18.40;;;2.78;;
22040;SDS011;11184;52.444;13.578;2023-12-22T09:51:23;12.00;;;3.05;;
22040;SDS011;11184;52.444;13.578;2023-12-22T09:54:09;12.02;;;2.88;;
22040;SDS011;11184;52.444;13.578;2023-12-22T09:56:55;8.45;;;2.47;;
22040;SDS011;11184;52.444;13.578;2023-12-22T09:59:39;14.63;;;3.17;;
22040;SDS011;11184;52.444;13.578;2023-12-22T10:02:27;9.70;;;2.10;;
22040;SDS011;11184;52.444;13.578;2023-12-22T10:05:12;8.65;;;2.67;;
22040;SDS011;11184;52.444;13.578;2023-12-22T10:07:56;12.93;;;2.50;;
22040;SDS011;11184;52.444;13.578;2023-12-22T10:10:41;12.00;;;2.17;;
22040;SDS011;11184;52.444;13.578;2023-12-22T10:13:27;9.77;;;2.58;;
22040;SDS011;11184;52.444;13.578;2023-12-22T10:16:11;8.52;;;3.08;;
22040;SDS011;11184;52.444;13.578;2023-12-22T10:18:56;12.02;;;2.75;;
22040;SDS011;11184;52.444;13.578;2023-12-22T10:21:41;7.35;;;2.08;;
22040;SDS011;11184;52.444;13.578;2023-12-22T10:24:36;8.05;;;2.15;;
22040;SDS011;11184;52.444;13.578;2023-12-22T10:27:21;11.32;;;2.63;;
22040;SDS011;11184;52.444;13.578;2023-12-22T10:30:06;17.42;;;3.08;;
22040;SDS011;11184;52.444;13.578;2023-12-22T10:32:51;6.88;;;1.80;;
22040;SDS011;11184;52.444;13.578;2023-12-22T10:35:36;17.05;;;2.38;;
22040;SDS011;11184;52.444;13.578;2023-12-22T10:38:21;11.25;;;2.33;;
22040;SDS011;11184;52.444;13.578;2023-12-22T10:41:06;10.07;;;2.63;;
22040;SDS011;11184;52.444;13.578;2023-12-22T10:43:51;13.20;;;3.95;;
22040;SDS011;11184;52.444;13.578;2023-12-22T10:46:36;17.45;;;3.90;;
22040;SDS011;11184;52.444;13.578;2023-12-22T10:49:21;15.02;;;3.15;;
22040;SDS011;11184;52.444;13.578;2023-12-22T10:52:05;9.23;;;2.55;;
22040;SDS011;11184;52.444;13.578;2023-12-22T10:54:50;11.55;;;3.85;;
22040;SDS011;11184;52.444;13.578;2023-12-22T10:57:35;10.77;;;3.05;;
22040;SDS011;11184;52.444;13.578;2023-12-22T11:00:22;15.38;;;3.55;;
22040;SDS011;11184;52.444;13.578;2023-12-22T11:03:07;13.57;;;2.75;;
22040;SDS011;11184;52.444;13.578;2023-12-22T11:05:52;6.00;;;2.97;;
22040;SDS011;11184;52.444;13.578;2023-12-22T11:08:39;13.55;;;2.50;;
22040;SDS011;11184;52.444;13.578;2023-12-22T11:11:30;11.40;;;2.42;;
22040;SDS011;11184;52.444;13.578;2023-12-22T11:14:15;16.58;;;2.60;;
22040;SDS011;11184;52.444;13.578;2023-12-22T11:17:00;11.68;;;1.77;;
22040;SDS011;11184;52.444;13.578;2023-12-22T11:19:47;14.70;;;3.30;;
22040;SDS011;11184;52.444;13.578;2023-12-22T11:22:32;12.48;;;3.28;;
22040;SDS011;11184;52.444;13.578;2023-12-22T11:25:17;7.35;;;2.22;;
22040;SDS011;11184;52.444;13.578;2023-12-22T11:28:02;8.88;;;3.20;;
22040;SDS011;11184;52.444;13.578;2023-12-22T11:30:49;16.73;;;2.25;;
22040;SDS011;11184;52.444;13.578;2023-12-22T11:33:36;11.30;;;2.15;;
22040;SDS011;11184;52.444;13.578;2023-12-22T11:36:21;16.13;;;2.20;;
22040;SDS011;11184;52.444;13.578;2023-12-22T11:39:07;5.20;;;1.55;;
22040;SDS011;11184;52.444;13.578;2023-12-22T11:41:51;11.18;;;2.35;;
22040;SDS011;11184;52.444;13.578;2023-12-22T11:44:38;9.60;;;2.13;;
22040;SDS011;11184;52.444;13.578;2023-12-22T11:47:23;7.47;;;3.03;;
22040;SDS011;11184;52.444;13.578;2023-12-22T11:50:13;6.00;;;1.75;;
22040;SDS011;11184;52.444;13.578;2023-12-22T11:53:18;14.73;;;2.67;;
22040;SDS011;11184;52.444;13.578;2023-12-22T11:56:04;15.35;;;1.98;;
22040;SDS011;11184;52.444;13.578;2023-12-22T11:58:51;9.60;;;2.13;;
22040;SDS011;11184;52.444;13.578;2023-12-22T12:01:38;13.07;;;2.05;;
22040;SDS011;11184;52.444;13.578;2023-12-22T12:04:23;7.88;;;2.15;;
22040;SDS011;11184;52.444;13.578;2023-12-22T12:10:12;5.75;;;1.83;;
22040;SDS011;11184;52.444;13.578;2023-12-22T12:13:07;10.50;;;2.90;;
22040;SDS011;11184;52.444;13.578;2023-12-22T12:15:52;9.00;;;2.55;;
22040;SDS011;11184;52.444;13.578;2023-12-22T12:18:37;6.22;;;1.65;;
22040;SDS011;11184;52.444;13.578;2023-12-22T12:21:21;13.52;;;2.65;;
22040;SDS011;11184;52.444;13.578;2023-12-22T12:24:06;10.52;;;2.40;;
22040;SDS011;11184;52.444;13.578;2023-12-22T12:26:51;17.08;;;2.67;;
22040;SDS011;11184;52.444;13.578;2023-12-22T12:29:36;5.57;;;1.67;;
22040;SDS011;11184;52.444;13.578;2023-12-22T12:32:22;10.82;;;2.47;;
22040;SDS011;11184;52.444;13.578;2023-12-22T12:35:08;9.55;;;2.10;;
22040;SDS011;11184;52.444;13.578;2023-12-22T12:37:53;3.40;;;1.60;;
22040;SDS011;11184;52.444;13.578;2023-12-22T12:40:38;17.55;;;2.50;;
22040;SDS011;11184;52.444;13.578;2023-12-22T12:43:23;10.40;;;1.92;;
22040;SDS011;11184;52.444;13.578;2023-12-22T12:46:08;5.57;;;2.13;;
22040;SDS011;11184;52.444;13.578;2023-12-22T12:49:02;13.75;;;2.40;;
22040;SDS011;11184;52.444;13.578;2023-12-22T12:51:48;5.10;;;1.92;;
22040;SDS011;11184;52.444;13.578;2023-12-22T12:54:33;6.65;;;3.38;;
22040;SDS011;11184;52.444;13.578;2023-12-22T12:57:17;15.98;;;3.50;;
22040;SDS011;11184;52.444;13.578;2023-12-22T13:00:02;5.28;;;1.38;;
22040;SDS011;11184;52.444;13.578;2023-12-22T13:02:47;12.60;;;2.67;;
22040;SDS011;11184;52.444;13.578;2023-12-22T13:05:32;14.60;;;2.30;;
22040;SDS011;11184;52.444;13.578;2023-12-22T13:08:17;13.25;;;3.03;;
22040;SDS011;11184;52.444;13.578;2023-12-22T13:11:01;9.77;;;2.50;;
22040;SDS011;11184;52.444;13.578;2023-12-22T13:13:47;7.85;;;2.75;;
22040;SDS011;11184;52.444;13.578;2023-12-22T13:16:32;12.93;;;3.60;;
22040;SDS011;11184;52.444;13.578;2023-12-22T13:19:16;9.70;;;2.38;;
22040;SDS011;11184;52.444;13.578;2023-12-22T13:22:01;10.32;;;1.80;;
22040;SDS011;11184;52.444;13.578;2023-12-22T13:24:55;9.82;;;2.53;;
22040;SDS011;11184;52.444;13.578;2023-12-22T13:27:45;12.27;;;2.20;;
22040;SDS011;11184;52.444;13.578;2023-12-22T13:30:34;6.50;;;2.13;;
22040;SDS011;11184;52.444;13.578;2023-12-22T13:33:24;9.50;;;2.40;;
22040;SDS011;11184;52.444;13.578;2023-12-22T13:36:12;8.68;;;2.00;;
22040;SDS011;11184;52.444;13.578;2023-12-22T13:38:56;13.85;;;2.33;;
22040;SDS011;11184;52.444;13.578;2023-12-22T13:41:41;8.65;;;2.65;;
22040;SDS011;11184;52.444;13.578;2023-12-22T13:44:29;9.80;;;3.20;;
22040;SDS011;11184;52.444;13.578;2023-12-22T13:47:17;11.27;;;3.13;;
22040;SDS011;11184;52.444;13.578;2023-12-22T13:50:02;19.88;;;3.03;;
22040;SDS011;11184;52.444;13.578;2023-12-22T13:52:47;9.57;;;1.98;;
22040;SDS011;11184;52.444;13.578;2023-12-22T13:55:34;20.92;;;3.50;;
22040;SDS011;11184;52.444;13.578;2023-12-22T13:58:21;10.07;;;3.05;;
22040;SDS011;11184;52.444;13.578;2023-12-22T14:01:12;11.13;;;1.92;;
22040;SDS011;11184;52.444;13.578;2023-12-22T14:03:58;7.45;;;2.83;;
22040;SDS011;11184;52.444;13.578;2023-12-22T14:06:43;17.70;;;2.92;;
22040;SDS011;11184;52.444;13.578;2023-12-22T14:09:27;10.05;;;2.22;;
22040;SDS011;11184;52.444;13.578;2023-12-22T14:12:16;13.25;;;2.08;;
22040;SDS011;11184;52.444;13.578;2023-12-22T14:15:01;12.13;;;2.50;;
22040;SDS011;11184;52.444;13.578;2023-12-22T14:17:46;9.77;;;2.85;;
22040;SDS011;11184;52.444;13.578;2023-12-22T14:20:31;8.68;;;3.20;;
22040;SDS011;11184;52.444;13.578;2023-12-22T14:23:16;11.07;;;2.67;;
22040;SDS011;11184;52.444;13.578;2023-12-22T14:26:00;10.30;;;3.80;;
22040;SDS011;11184;52.444;13.578;2023-12-22T14:28:45;13.70;;;2.60;;
22040;SDS011;11184;52.444;13.578;2023-12-22T14:31:34;12.00;;;1.58;;
22040;SDS011;11184;52.444;13.578;2023-12-22T14:34:19;7.45;;;1.55;;
22040;SDS011;11184;52.444;13.578;2023-12-22T14:37:04;14.57;;;3.50;;
22040;SDS011;11184;52.444;13.578;2023-12-22T14:39:48;5.30;;;1.38;;
22040;SDS011;11184;52.444;13.578;2023-12-22T14:42:33;8.15;;;1.20;;
22040;SDS011;11184;52.444;13.578;2023-12-22T14:45:17;2.95;;;1.98;;
22040;SDS011;11184;52.444;13.578;2023-12-22T14:48:02;6.45;;;1.88;;
22040;SDS011;11184;52.444;13.578;2023-12-22T14:50:47;7.60;;;2.00;;
22040;SDS011;11184;52.444;13.578;2023-12-22T14:53:31;2.63;;;1.20;;
22040;SDS011;11184;52.444;13.578;2023-12-22T14:56:16;8.93;;;1.80;;
22040;SDS011;11184;52.444;13.578;2023-12-22T14:59:00;2.05;;;1.48;;
22040;SDS011;11184;52.444;13.578;2023-12-22T15:01:45;4.93;;;1.52;;
22040;SDS011;11184;52.444;13.578;2023-12-22T15:04:33;3.60;;;2.13;;
22040;SDS011;11184;52.444;13.578;2023-12-22T15:07:18;7.60;;;1.52;;
22040;SDS011;11184;52.444;13.578;2023-12-22T15:10:03;8.15;;;2.13;;
22040;SDS011;11184;52.444;13.578;2023-12-22T15:12:48;8.00;;;2.15;;
22040;SDS011;11184;52.444;13.578;2023-12-22T15:15:33;7.13;;;3.25;;
22040;SDS011;11184;52.444;13.578;2023-12-22T15:18:18;8.68;;;1.40;;
22040;SDS011;11184;52.444;13.578;2023-12-22T15:21:03;4.35;;;2.08;;
22040;SDS011;11184;52.444;13.578;2023-12-22T15:23:47;9.50;;;1.63;;
22040;SDS011;11184;52.444;13.578;2023-12-22T15:26:32;8.75;;;2.45;;
22040;SDS011;11184;52.444;13.578;2023-12-22T15:29:17;5.57;;;1.58;;
22040;SDS011;11184;52.444;13.578;2023-12-22T15:32:02;6.38;;;1.80;;
22040;SDS011;11184;52.444;13.578;2023-12-22T15:34:47;6.40;;;1.50;;
22040;SDS011;11184;52.444;13.578;2023-12-22T15:37:32;6.28;;;1.58;;
22040;SDS011;11184;52.444;13.578;2023-12-22T15:40:16;6.07;;;1.95;;
22040;SDS011;11184;52.444;13.578;2023-12-22T15:43:01;6.65;;;1.70;;
22040;SDS011;11184;52.444;13.578;2023-12-22T15:45:45;8.63;;;1.60;;
22040;SDS011;11184;52.444;13.578;2023-12-22T15:48:30;9.85;;;2.50;;
22040;SDS011;11184;52.444;13.578;2023-12-22T15:51:14;5.53;;;1.60;;
22040;SDS011;11184;52.444;13.578;2023-12-22T15:54:00;10.13;;;3.00;;
22040;SDS011;11184;52.444;13.578;2023-12-22T15:56:46;10.18;;;2.05;;
22040;SDS011;11184;52.444;13.578;2023-12-22T15:59:30;5.10;;;2.00;;
22040;SDS011;11184;52.444;13.578;2023-12-22T16:02:15;7.20;;;3.38;;
22040;SDS011;11184;52.444;13.578;2023-12-22T16:05:00;12.43;;;2.25;;
22040;SDS011;11184;52.444;13.578;2023-12-22T16:07:44;13.90;;;2.85;;
22040;SDS011;11184;52.444;13.578;2023-12-22T16:10:29;9.07;;;2.38;;
22040;SDS011;11184;52.444;13.578;2023-12-22T16:13:14;6.60;;;2.08;;
22040;SDS011;11184;52.444;13.578;2023-12-22T16:15:59;10.75;;;3.17;;
22040;SDS011;11184;52.444;13.578;2023-12-22T16:18:44;9.57;;;3.15;;
22040;SDS011;11184;52.444;13.578;2023-12-22T16:21:29;6.75;;;1.67;;
22040;SDS011;11184;52.444;13.578;2023-12-22T16:24:13;11.02;;;2.38;;
22040;SDS011;11184;52.444;13.578;2023-12-22T16:26:58;4.15;;;1.73;;